createdAt,value
2023-01-21T00:03:39.032Z,97523.03
2023-01-21T00:07:56.523Z,97514.25
2023-01-21T00:12:15.471Z,97509.91
2023-01-21T00:16:32.963Z,97510.50
2023-01-21T00:20:50.076Z,97518.63
2023-01-21T00:25:08.127Z,97524.06
2023-01-21T00:29:26.660Z,97531.69
2023-01-21T00:33:44.152Z,97539.94
2023-01-21T00:38:01.877Z,97542.72
2023-01-21T00:42:19.587Z,97538.94
2023-01-21T00:46:37.244Z,97557.97
2023-01-21T00:50:56.368Z,97550.56
2023-01-21T00:55:13.884Z,97561.69
2023-01-21T00:59:31.030Z,97549.19
2023-01-21T01:03:50.389Z,97551.16
2023-01-21T01:08:08.006Z,97549.53
2023-01-21T01:12:25.595Z,97558.16
2023-01-21T01:16:43.100Z,97552.34
2023-01-21T01:21:02.300Z,97568.31
2023-01-21T01:25:19.920Z,97563.75
2023-01-21T01:29:37.410Z,97572.91
2023-01-21T01:33:56.555Z,97574.16
2023-01-21T01:38:16.174Z,97578.59
2023-01-21T01:42:34.224Z,97581.66
2023-01-21T01:46:51.842Z,97566.41
2023-01-21T01:51:09.888Z,97570.63
2023-01-21T01:55:34.160Z,97545.97
2023-01-21T01:59:51.949Z,97541.97
2023-01-21T02:04:17.312Z,97544.75
2023-01-21T02:08:36.422Z,97533.66
2023-01-21T02:12:54.581Z,97529.53
2023-01-21T02:17:39.262Z,97533.91
2023-01-21T02:22:05.335Z,97531.69
2023-01-21T02:27:02.237Z,97530.31
2023-01-21T02:32:01.562Z,97537.31
2023-01-21T02:36:43.864Z,97538.94
2023-01-21T02:41:19.008Z,97547.72
2023-01-21T02:46:13.114Z,97531.09
2023-01-21T02:50:38.809Z,97535.19
2023-01-21T02:55:02.158Z,97537.09
2023-01-21T02:59:19.953Z,97530.13
2023-01-21T03:03:41.586Z,97528.75
2023-01-21T03:08:18.438Z,97538.16
2023-01-21T03:12:51.182Z,97535.22
2023-01-21T03:17:38.336Z,97535.81
2023-01-21T03:21:59.241Z,97530.91
2023-01-21T03:26:22.579Z,97530.84
2023-01-21T03:30:43.732Z,97514.69
2023-01-21T03:35:04.232Z,97514.00
2023-01-21T03:39:57.320Z,97505.09
2023-01-21T03:44:14.938Z,97510.03
2023-01-21T03:49:02.389Z,97515.78
2023-01-21T03:53:20.220Z,97514.63
2023-01-21T03:57:38.079Z,97520.78
2023-01-21T04:01:55.719Z,97513.66
2023-01-21T04:06:16.596Z,97526.91
2023-01-21T04:10:34.227Z,97530.28
2023-01-21T04:14:51.659Z,97515.19
2023-01-21T04:19:09.534Z,97513.97
2023-01-21T04:23:27.033Z,97521.50
2023-01-21T04:27:44.652Z,97520.31
2023-01-21T04:32:02.343Z,97526.63
2023-01-21T04:36:19.522Z,97520.16
2023-01-21T04:40:37.128Z,97520.88
2023-01-21T04:44:54.746Z,97524.06
2023-01-21T04:49:12.473Z,97520.28
2023-01-21T04:53:30.105Z,97515.72
2023-01-21T04:57:47.792Z,97509.91
2023-01-21T05:02:05.515Z,97512.44
2023-01-21T05:06:23.054Z,97505.31
2023-01-21T05:10:41.689Z,97513.91
2023-01-21T05:14:59.223Z,97511.59
2023-01-21T05:19:16.753Z,97514.47
2023-01-21T05:23:34.382Z,97524.59
2023-01-21T05:27:53.565Z,97525.00
2023-01-21T05:32:11.379Z,97533.03
2023-01-21T05:36:28.945Z,97510.56
2023-01-21T05:40:46.422Z,97513.66
2023-01-21T05:45:04.426Z,97514.34
2023-01-21T05:49:21.998Z,97504.25
2023-01-21T05:53:39.792Z,97506.06
2023-01-21T05:57:57.304Z,97515.88
2023-01-21T06:02:15.240Z,97516.22
2023-01-21T06:06:33.047Z,97508.03
2023-01-21T06:10:50.573Z,97521.88
2023-01-21T06:15:08.683Z,97520.72
2023-01-21T06:19:26.285Z,97512.19
2023-01-21T06:23:44.003Z,97514.72
2023-01-21T06:28:01.545Z,97511.25
2023-01-21T06:32:19.166Z,97510.94
2023-01-21T06:36:36.619Z,97515.59
2023-01-21T06:40:54.270Z,97516.56
2023-01-21T06:45:11.908Z,97521.38
2023-01-21T06:49:29.712Z,97546.44
2023-01-21T06:53:47.172Z,97538.78
2023-01-21T06:58:04.737Z,97541.16
2023-01-21T07:02:22.198Z,97547.72
2023-01-21T07:06:40.087Z,97558.03
2023-01-21T07:10:57.594Z,97558.91
2023-01-21T07:15:16.221Z,97575.16
2023-01-21T07:19:34.142Z,97579.88
2023-01-21T07:23:55.753Z,97577.94
2023-01-21T07:28:12.883Z,97578.31
2023-01-21T07:32:30.514Z,97585.75
2023-01-21T07:36:47.983Z,97592.94
2023-01-21T07:41:05.700Z,97588.50
2023-01-21T07:45:24.268Z,97590.56
2023-01-21T07:49:42.229Z,97594.13
2023-01-21T07:53:59.818Z,97598.13
2023-01-21T07:58:17.442Z,97609.00
2023-01-21T08:02:34.503Z,97608.00
2023-01-21T08:06:57.126Z,97607.78
2023-01-21T08:11:14.426Z,97610.22
2023-01-21T08:15:32.032Z,97603.91
2023-01-21T08:19:49.668Z,97615.91
2023-01-21T08:24:07.438Z,97615.97
2023-01-21T08:28:25.274Z,97618.88
2023-01-21T08:32:42.804Z,97629.31
2023-01-21T08:37:00.400Z,97641.09
2023-01-21T08:41:18.043Z,97645.25
2023-01-21T08:45:35.532Z,97651.16
2023-01-21T08:49:53.449Z,97640.66
2023-01-21T08:54:11.153Z,97647.13
2023-01-21T08:58:30.935Z,97648.59
2023-01-21T09:02:50.693Z,97632.91
2023-01-21T09:07:09.175Z,97640.25
2023-01-21T09:11:29.257Z,97650.56
2023-01-21T09:15:47.329Z,97651.28
2023-01-21T09:20:05.335Z,97650.25
2023-01-21T09:24:23.851Z,97657.88
2023-01-21T09:28:44.119Z,97669.75
2023-01-21T09:33:01.567Z,97669.41
2023-01-21T09:37:19.115Z,97686.25
2023-01-21T09:41:50.846Z,97674.44
2023-01-21T09:46:32.320Z,97679.09
2023-01-21T09:50:52.017Z,97680.94
2023-01-21T09:55:47.175Z,97691.53
2023-01-21T10:00:18.296Z,97690.50
2023-01-21T10:04:48.218Z,97692.63
2023-01-21T10:09:45.687Z,97707.00
2023-01-21T10:14:44.918Z,97701.78
2023-01-21T10:19:04.583Z,97683.16
2023-01-21T10:23:49.775Z,97700.25
2023-01-21T10:28:30.620Z,97701.91
2023-01-21T10:32:52.180Z,97704.84
2023-01-21T10:37:46.209Z,97696.34
2023-01-21T10:42:31.777Z,97698.63
2023-01-21T10:47:05.625Z,97699.72
2023-01-21T10:52:18.521Z,97702.06
2023-01-21T10:56:59.525Z,97689.59
2023-01-21T11:01:34.752Z,97697.06
2023-01-21T11:05:52.424Z,97688.59
2023-01-21T11:10:22.695Z,97692.28
2023-01-21T11:14:40.200Z,97703.44
2023-01-21T11:18:58.590Z,97683.72
2023-01-21T11:23:54.628Z,97687.84
2023-01-21T11:28:27.375Z,97691.13
2023-01-21T11:32:44.874Z,97712.78
2023-01-21T11:37:08.287Z,97706.72
2023-01-21T11:41:25.984Z,97719.75
2023-01-21T11:45:43.902Z,97725.19
2023-01-21T11:50:16.637Z,97723.63
2023-01-21T11:54:39.739Z,97721.75
2023-01-21T11:58:57.541Z,97703.66
2023-01-21T12:03:18.903Z,97701.09
2023-01-21T12:07:40.807Z,97698.66
2023-01-21T12:12:27.032Z,97705.34
2023-01-21T12:17:01.274Z,97706.25
2023-01-21T12:21:43.565Z,97722.81
2023-01-21T12:26:14.434Z,97701.41
2023-01-21T12:30:53.638Z,97696.38
2023-01-21T12:35:35.711Z,97696.69
2023-01-21T12:39:56.728Z,97700.88
2023-01-21T12:44:14.112Z,97717.50
2023-01-21T12:49:12.724Z,97713.09
2023-01-21T12:53:44.792Z,97723.03
2023-01-21T12:58:14.786Z,97742.66
2023-01-21T13:03:10.536Z,97742.91
2023-01-21T13:07:53.816Z,97750.81
2023-01-21T13:12:20.517Z,97756.16
2023-01-21T13:16:52.890Z,97768.94
2023-01-21T13:21:35.061Z,97771.03
2023-01-21T13:26:04.304Z,97776.31
2023-01-21T13:31:01.492Z,97785.84
2023-01-21T13:35:31.915Z,97804.53
2023-01-21T13:40:12.808Z,97803.97
2023-01-21T13:45:05.603Z,97818.97
2023-01-21T13:49:59.636Z,97832.56
2023-01-21T13:54:38.824Z,97839.19
2023-01-21T13:59:14.160Z,97834.75
2023-01-21T14:04:03.266Z,97844.06
2023-01-21T14:08:43.536Z,97830.53
2023-01-21T14:13:07.092Z,97837.56
2023-01-21T14:18:03.480Z,97843.94
2023-01-21T14:23:10.549Z,97844.16
2023-01-21T14:27:56.643Z,97830.00
2023-01-21T14:32:40.169Z,97837.53
2023-01-21T14:37:06.515Z,97851.69
2023-01-21T14:41:24.048Z,97860.38
2023-01-21T14:45:56.104Z,97865.53
2023-01-21T14:50:52.249Z,97879.63
2023-01-21T14:55:31.333Z,97873.50
2023-01-21T14:59:50.800Z,97894.63
2023-01-21T15:04:24.524Z,97896.19
2023-01-21T15:08:47.543Z,97900.78
2023-01-21T15:13:25.861Z,97908.94
2023-01-21T15:18:21.012Z,97923.00
2023-01-21T15:22:41.397Z,97927.13
2023-01-21T15:27:26.131Z,97940.94
2023-01-21T15:31:45.059Z,97956.28
2023-01-21T15:36:04.252Z,97975.84
2023-01-21T15:40:52.931Z,97970.34
2023-01-21T15:45:42.326Z,97970.44
2023-01-21T15:50:21.221Z,97991.06
2023-01-21T15:55:08.856Z,97991.28
2023-01-21T15:59:46.401Z,98008.91
2023-01-21T16:04:19.553Z,98018.72
2023-01-21T16:09:03.387Z,98022.00
2023-01-21T16:13:43.537Z,98023.56
2023-01-21T16:18:46.786Z,98028.44
2023-01-21T16:23:07.481Z,98031.75
2023-01-21T16:27:28.668Z,98042.69
2023-01-21T16:31:59.758Z,98060.38
2023-01-21T16:36:21.275Z,98058.03
2023-01-21T16:40:38.984Z,98051.66
2023-01-21T16:44:58.635Z,98063.97
2023-01-21T16:49:18.064Z,98049.47
2023-01-21T16:53:35.568Z,98058.88
2023-01-21T16:57:56.719Z,98072.50
2023-01-21T17:02:34.198Z,98071.56
2023-01-21T17:06:54.112Z,98071.78
2023-01-21T17:11:12.786Z,98079.63
2023-01-21T17:15:49.146Z,98077.59
2023-01-21T17:20:07.429Z,98083.25
2023-01-21T17:24:38.405Z,98101.34
2023-01-21T17:29:26.542Z,98103.06
2023-01-21T17:33:44.144Z,98098.13
2023-01-21T17:38:04.723Z,98107.75
2023-01-21T17:42:30.527Z,98109.56
2023-01-21T17:46:54.369Z,98125.41
2023-01-21T17:51:20.452Z,98143.38
2023-01-21T17:55:40.580Z,98148.38
2023-01-21T17:59:58.458Z,98151.63
2023-01-21T18:04:16.010Z,98159.47
2023-01-21T18:08:33.764Z,98174.22
2023-01-21T18:12:52.411Z,98172.16
2023-01-21T18:17:20.987Z,98180.88
2023-01-21T18:21:38.643Z,98195.31
2023-01-21T18:25:56.680Z,98187.34
2023-01-21T18:30:19.260Z,98194.00
2023-01-21T18:34:36.943Z,98195.94
2023-01-21T18:38:55.112Z,98210.44
2023-01-21T18:43:12.978Z,98211.63
2023-01-21T18:47:30.725Z,98230.22
2023-01-21T18:51:48.434Z,98231.69
2023-01-21T18:56:11.734Z,98237.13
2023-01-21T19:00:33.555Z,98245.19
2023-01-21T19:04:52.553Z,98234.41
2023-01-21T19:09:24.414Z,98235.00
2023-01-21T19:13:42.131Z,98244.09
2023-01-21T19:18:00.149Z,98262.34
2023-01-21T19:22:18.269Z,98253.97
2023-01-21T19:26:37.507Z,98256.13
2023-01-21T19:30:55.728Z,98263.06
2023-01-21T19:35:19.151Z,98278.41
2023-01-21T19:39:36.748Z,98281.00
2023-01-21T19:43:54.522Z,98288.19
2023-01-21T19:48:15.016Z,98280.91
2023-01-21T19:52:38.402Z,98279.09
2023-01-21T19:56:56.309Z,98275.44
2023-01-21T20:01:13.944Z,98290.81
2023-01-21T20:05:35.725Z,98300.75
2023-01-21T20:09:53.251Z,98315.56
2023-01-21T20:14:11.611Z,98334.16
2023-01-21T20:18:31.252Z,98329.22
2023-01-21T20:22:48.927Z,98318.31
2023-01-21T20:27:09.548Z,98315.75
2023-01-21T20:31:29.562Z,98326.19
2023-01-21T20:35:53.416Z,98331.34
2023-01-21T20:40:29.159Z,98328.06
2023-01-21T20:44:46.835Z,98332.78
2023-01-21T20:49:04.402Z,98345.16
2023-01-21T20:53:22.025Z,98350.03
2023-01-21T20:57:40.188Z,98353.84
2023-01-21T21:01:57.803Z,98354.25
2023-01-21T21:06:22.116Z,98360.72
2023-01-21T21:10:39.751Z,98349.94
2023-01-21T21:14:57.208Z,98378.47
2023-01-21T21:19:14.807Z,98390.94
2023-01-21T21:23:32.455Z,98381.00
2023-01-21T21:27:50.414Z,98388.59
2023-01-21T21:32:14.132Z,98398.41
2023-01-21T21:36:31.713Z,98397.06
2023-01-21T21:40:53.361Z,98392.59
2023-01-21T21:45:11.273Z,98391.69
2023-01-21T21:49:29.505Z,98391.97
2023-01-21T21:53:47.292Z,98390.03
2023-01-21T21:59:20.639Z,98398.19
2023-01-21T22:03:58.278Z,98391.50
2023-01-21T22:08:16.521Z,98392.81
2023-01-21T22:12:34.099Z,98400.28
2023-01-21T22:16:52.213Z,98401.06
2023-01-21T22:21:18.300Z,98398.91
2023-01-21T22:25:36.267Z,98396.44
2023-01-21T22:29:53.798Z,98392.97
2023-01-21T22:34:11.899Z,98414.53
2023-01-21T22:38:29.641Z,98424.44
2023-01-21T22:42:47.252Z,98406.97
2023-01-21T22:47:04.943Z,98411.75
2023-01-21T22:51:23.682Z,98421.72
2023-01-21T22:55:41.649Z,98429.03
2023-01-21T23:00:01.019Z,98444.13
2023-01-21T23:04:23.485Z,98453.00
2023-01-21T23:08:41.103Z,98443.66
2023-01-21T23:12:58.814Z,98446.97
2023-01-21T23:17:18.971Z,98445.16
2023-01-21T23:21:39.036Z,98439.78
2023-01-21T23:25:56.672Z,98440.44
2023-01-21T23:30:15.343Z,98438.56
2023-01-21T23:34:33.094Z,98442.75
2023-01-21T23:38:50.795Z,98438.44
2023-01-21T23:43:08.290Z,98442.69
2023-01-21T23:47:26.066Z,98452.31
2023-01-21T23:51:44.016Z,98461.69
2023-01-21T23:56:25.462Z,98464.69
